sensor_id;sensor_type;location;lat;lon;timestamp;P1;durP1;ratioP1;P2;durP2;ratioP2
1414;SDS011;702;49.466;11.086;2024-03-06T00:01:03;27.47;;;17.97;;
1414;SDS011;702;49.466;11.086;2024-03-06T00:03:30;27.57;;;17.83;;
1414;SDS011;702;49.466;11.086;2024-03-06T00:05:57;23.90;;;17.60;;
1414;SDS011;702;49.466;11.086;2024-03-06T00:08:28;23.43;;;17.27;;
1414;SDS011;702;49.466;11.086;2024-03-06T00:10:55;25.80;;;17.50;;
1414;SDS011;702;49.466;11.086;2024-03-06T00:13:24;25.67;;;18.67;;
1414;SDS011;702;49.466;11.086;2024-03-06T00:15:52;27.10;;;18.70;;
1414;SDS011;702;49.466;11.086;2024-03-06T00:18:19;28.80;;;19.17;;
1414;SDS011;702;49.466;11.086;2024-03-06T00:20:46;33.53;;;21.20;;
1414;SDS011;702;49.466;11.086;2024-03-06T00:23:14;26.03;;;18.77;;
1414;SDS011;702;49.466;11.086;2024-03-06T00:25:43;24.77;;;18.53;;
1414;SDS011;702;49.466;11.086;2024-03-06T00:28:10;27.63;;;17.60;;
1414;SDS011;702;49.466;11.086;2024-03-06T00:30:39;23.17;;;17.37;;
1414;SDS011;702;49.466;11.086;2024-03-06T00:33:07;23.73;;;18.20;;
1414;SDS011;702;49.466;11.086;2024-03-06T00:35:34;23.27;;;17.87;;
1414;SDS011;702;49.466;11.086;2024-03-06T00:38:01;23.47;;;17.37;;
1414;SDS011;702;49.466;11.086;2024-03-06T00:40:31;26.60;;;16.83;;
1414;SDS011;702;49.466;11.086;2024-03-06T00:43:00;23.70;;;17.27;;
1414;SDS011;702;49.466;11.086;2024-03-06T00:45:28;21.23;;;16.30;;
1414;SDS011;702;49.466;11.086;2024-03-06T00:47:55;24.83;;;17.83;;
1414;SDS011;702;49.466;11.086;2024-03-06T00:50:22;24.50;;;17.90;;
1414;SDS011;702;49.466;11.086;2024-03-06T00:52:50;24.50;;;17.83;;
1414;SDS011;702;49.466;11.086;2024-03-06T00:55:17;30.57;;;19.33;;
1414;SDS011;702;49.466;11.086;2024-03-06T00:57:47;27.43;;;19.53;;
1414;SDS011;702;49.466;11.086;2024-03-06T01:00:17;27.77;;;19.43;;
1414;SDS011;702;49.466;11.086;2024-03-06T01:02:45;27.07;;;19.33;;
1414;SDS011;702;49.466;11.086;2024-03-06T01:05:13;26.77;;;18.13;;
1414;SDS011;702;49.466;11.086;2024-03-06T01:07:40;28.97;;;19.20;;
1414;SDS011;702;49.466;11.086;2024-03-06T01:10:08;27.90;;;19.77;;
1414;SDS011;702;49.466;11.086;2024-03-06T01:12:36;28.90;;;19.63;;
1414;SDS011;702;49.466;11.086;2024-03-06T01:15:04;29.23;;;18.77;;
1414;SDS011;702;49.466;11.086;2024-03-06T01:17:34;26.90;;;19.30;;
1414;SDS011;702;49.466;11.086;2024-03-06T01:20:01;23.57;;;17.27;;
1414;SDS011;702;49.466;11.086;2024-03-06T01:22:32;32.53;;;20.43;;
1414;SDS011;702;49.466;11.086;2024-03-06T01:24:59;27.87;;;18.27;;
1414;SDS011;702;49.466;11.086;2024-03-06T01:27:28;26.60;;;20.40;;
1414;SDS011;702;49.466;11.086;2024-03-06T01:29:55;27.67;;;17.67;;
1414;SDS011;702;49.466;11.086;2024-03-06T01:32:23;28.20;;;20.57;;
1414;SDS011;702;49.466;11.086;2024-03-06T01:34:53;32.07;;;21.00;;
1414;SDS011;702;49.466;11.086;2024-03-06T01:37:19;30.60;;;19.90;;
1414;SDS011;702;49.466;11.086;2024-03-06T01:39:47;29.87;;;20.13;;
1414;SDS011;702;49.466;11.086;2024-03-06T01:42:16;30.13;;;20.03;;
1414;SDS011;702;49.466;11.086;2024-03-06T01:44:44;29.03;;;20.23;;
1414;SDS011;702;49.466;11.086;2024-03-06T01:47:11;32.80;;;23.00;;
1414;SDS011;702;49.466;11.086;2024-03-06T01:49:38;29.37;;;18.90;;
1414;SDS011;702;49.466;11.086;2024-03-06T01:52:08;28.10;;;20.60;;
1414;SDS011;702;49.466;11.086;2024-03-06T01:54:36;30.43;;;20.30;;
1414;SDS011;702;49.466;11.086;2024-03-06T01:57:03;35.77;;;22.43;;
1414;SDS011;702;49.466;11.086;2024-03-06T01:59:32;26.77;;;19.37;;
1414;SDS011;702;49.466;11.086;2024-03-06T02:02:01;35.57;;;21.77;;
1414;SDS011;702;49.466;11.086;2024-03-06T02:04:30;32.40;;;21.40;;
1414;SDS011;702;49.466;11.086;2024-03-06T02:06:58;29.57;;;20.63;;
1414;SDS011;702;49.466;11.086;2024-03-06T02:09:27;34.57;;;22.87;;
1414;SDS011;702;49.466;11.086;2024-03-06T02:11:54;29.07;;;20.77;;
1414;SDS011;702;49.466;11.086;2024-03-06T02:14:22;30.80;;;22.47;;
1414;SDS011;702;49.466;11.086;2024-03-06T02:16:50;31.40;;;21.67;;
1414;SDS011;702;49.466;11.086;2024-03-06T02:19:17;27.87;;;20.07;;
1414;SDS011;702;49.466;11.086;2024-03-06T02:21:45;34.77;;;22.20;;
1414;SDS011;702;49.466;11.086;2024-03-06T02:24:14;30.13;;;19.80;;
1414;SDS011;702;49.466;11.086;2024-03-06T02:26:42;31.50;;;20.80;;
1414;SDS011;702;49.466;11.086;2024-03-06T02:29:09;32.30;;;22.50;;
1414;SDS011;702;49.466;11.086;2024-03-06T02:31:36;32.40;;;22.07;;
1414;SDS011;702;49.466;11.086;2024-03-06T02:34:04;31.07;;;20.20;;
1414;SDS011;702;49.466;11.086;2024-03-06T02:36:31;34.13;;;22.57;;
1414;SDS011;702;49.466;11.086;2024-03-06T02:39:00;34.07;;;21.77;;
1414;SDS011;702;49.466;11.086;2024-03-06T02:41:34;32.43;;;22.13;;
1414;SDS011;702;49.466;11.086;2024-03-06T02:44:02;34.50;;;22.93;;
1414;SDS011;702;49.466;11.086;2024-03-06T02:46:30;38.60;;;22.07;;
1414;SDS011;702;49.466;11.086;2024-03-06T02:48:58;34.37;;;22.43;;
1414;SDS011;702;49.466;11.086;2024-03-06T02:51:25;33.70;;;22.10;;
1414;SDS011;702;49.466;11.086;2024-03-06T02:53:52;31.47;;;20.40;;
1414;SDS011;702;49.466;11.086;2024-03-06T02:56:21;32.60;;;22.23;;
1414;SDS011;702;49.466;11.086;2024-03-06T02:58:48;33.40;;;21.30;;
1414;SDS011;702;49.466;11.086;2024-03-06T03:01:15;33.30;;;21.60;;
1414;SDS011;702;49.466;11.086;2024-03-06T03:03:43;31.87;;;20.30;;
1414;SDS011;702;49.466;11.086;2024-03-06T03:06:12;31.67;;;20.73;;
1414;SDS011;702;49.466;11.086;2024-03-06T03:08:39;33.63;;;23.00;;
1414;SDS011;702;49.466;11.086;2024-03-06T03:11:07;33.40;;;20.93;;
1414;SDS011;702;49.466;11.086;2024-03-06T03:13:36;35.40;;;21.30;;
1414;SDS011;702;49.466;11.086;2024-03-06T03:16:04;34.60;;;22.10;;
1414;SDS011;702;49.466;11.086;2024-03-06T03:18:32;33.20;;;21.10;;
1414;SDS011;702;49.466;11.086;2024-03-06T03:21:00;39.00;;;23.13;;
1414;SDS011;702;49.466;11.086;2024-03-06T03:23:27;37.07;;;23.80;;
1414;SDS011;702;49.466;11.086;2024-03-06T03:25:54;38.87;;;23.60;;
1414;SDS011;702;49.466;11.086;2024-03-06T03:28:22;37.83;;;23.70;;
1414;SDS011;702;49.466;11.086;2024-03-06T03:30:50;42.20;;;25.17;;
1414;SDS011;702;49.466;11.086;2024-03-06T03:33:18;39.70;;;24.60;;
1414;SDS011;702;49.466;11.086;2024-03-06T03:35:45;43.37;;;24.90;;
1414;SDS011;702;49.466;11.086;2024-03-06T03:38:12;45.70;;;27.70;;
1414;SDS011;702;49.466;11.086;2024-03-06T03:40:39;41.90;;;24.70;;
1414;SDS011;702;49.466;11.086;2024-03-06T03:43:07;42.00;;;25.93;;
1414;SDS011;702;49.466;11.086;2024-03-06T03:45:34;47.33;;;26.90;;
1414;SDS011;702;49.466;11.086;2024-03-06T03:48:04;44.40;;;25.00;;
1414;SDS011;702;49.466;11.086;2024-03-06T03:50:32;45.83;;;27.70;;
1414;SDS011;702;49.466;11.086;2024-03-06T03:53:01;46.53;;;26.80;;
1414;SDS011;702;49.466;11.086;2024-03-06T03:55:29;43.80;;;25.20;;
1414;SDS011;702;49.466;11.086;2024-03-06T03:57:58;47.07;;;27.67;;
1414;SDS011;702;49.466;11.086;2024-03-06T04:00:26;47.53;;;27.33;;
1414;SDS011;702;49.466;11.086;2024-03-06T04:02:53;47.30;;;26.63;;
1414;SDS011;702;49.466;11.086;2024-03-06T04:05:22;49.50;;;27.30;;
1414;SDS011;702;49.466;11.086;2024-03-06T04:07:50;50.17;;;27.80;;
1414;SDS011;702;49.466;11.086;2024-03-06T04:10:17;45.20;;;27.23;;
1414;SDS011;702;49.466;11.086;2024-03-06T04:12:44;47.57;;;27.20;;
1414;SDS011;702;49.466;11.086;2024-03-06T04:15:13;44.57;;;26.57;;
1414;SDS011;702;49.466;11.086;2024-03-06T04:17:40;49.40;;;28.17;;
1414;SDS011;702;49.466;11.086;2024-03-06T04:20:11;55.53;;;29.70;;
1414;SDS011;702;49.466;11.086;2024-03-06T04:22:40;57.53;;;31.43;;
1414;SDS011;702;49.466;11.086;2024-03-06T04:25:07;55.27;;;31.10;;
1414;SDS011;702;49.466;11.086;2024-03-06T04:27:37;56.97;;;32.17;;
1414;SDS011;702;49.466;11.086;2024-03-06T04:30:04;55.53;;;31.50;;
1414;SDS011;702;49.466;11.086;2024-03-06T04:32:33;60.97;;;32.43;;
1414;SDS011;702;49.466;11.086;2024-03-06T04:35:00;51.77;;;31.10;;
1414;SDS011;702;49.466;11.086;2024-03-06T04:37:28;60.23;;;34.70;;
1414;SDS011;702;49.466;11.086;2024-03-06T04:39:57;55.10;;;31.00;;
1414;SDS011;702;49.466;11.086;2024-03-06T04:42:25;60.10;;;31.53;;
1414;SDS011;702;49.466;11.086;2024-03-06T04:44:52;52.37;;;29.97;;
1414;SDS011;702;49.466;11.086;2024-03-06T04:47:20;51.30;;;29.77;;
1414;SDS011;702;49.466;11.086;2024-03-06T04:49:51;50.77;;;27.33;;
1414;SDS011;702;49.466;11.086;2024-03-06T04:52:19;50.67;;;30.57;;
1414;SDS011;702;49.466;11.086;2024-03-06T04:54:46;45.63;;;28.10;;
1414;SDS011;702;49.466;11.086;2024-03-06T04:57:15;50.43;;;29.07;;
1414;SDS011;702;49.466;11.086;2024-03-06T04:59:44;44.40;;;27.63;;
1414;SDS011;702;49.466;11.086;2024-03-06T05:02:12;47.53;;;30.73;;
1414;SDS011;702;49.466;11.086;2024-03-06T05:04:39;53.30;;;31.83;;
1414;SDS011;702;49.466;11.086;2024-03-06T05:07:06;58.03;;;32.00;;
1414;SDS011;702;49.466;11.086;2024-03-06T05:09:34;49.63;;;28.63;;
1414;SDS011;702;49.466;11.086;2024-03-06T05:12:01;56.20;;;31.03;;
1414;SDS011;702;49.466;11.086;2024-03-06T05:14:31;53.10;;;29.53;;
1414;SDS011;702;49.466;11.086;2024-03-06T05:16:58;56.07;;;31.97;;
1414;SDS011;702;49.466;11.086;2024-03-06T05:19:26;55.37;;;29.90;;
1414;SDS011;702;49.466;11.086;2024-03-06T05:21:57;50.93;;;29.60;;
1414;SDS011;702;49.466;11.086;2024-03-06T05:24:25;51.33;;;30.80;;
1414;SDS011;702;49.466;11.086;2024-03-06T05:26:52;57.37;;;32.80;;
1414;SDS011;702;49.466;11.086;2024-03-06T05:29:19;52.83;;;29.77;;
1414;SDS011;702;49.466;11.086;2024-03-06T05:31:49;53.23;;;30.43;;
1414;SDS011;702;49.466;11.086;2024-03-06T05:34:16;59.47;;;33.67;;
1414;SDS011;702;49.466;11.086;2024-03-06T05:36:43;56.73;;;31.60;;
1414;SDS011;702;49.466;11.086;2024-03-06T05:39:10;55.93;;;31.57;;
1414;SDS011;702;49.466;11.086;2024-03-06T05:41:38;60.07;;;32.30;;
1414;SDS011;702;49.466;11.086;2024-03-06T05:44:06;58.87;;;32.67;;
1414;SDS011;702;49.466;11.086;2024-03-06T05:46:33;59.87;;;32.60;;
1414;SDS011;702;49.466;11.086;2024-03-06T05:49:04;61.83;;;31.50;;
1414;SDS011;702;49.466;11.086;2024-03-06T05:51:31;60.83;;;33.07;;
1414;SDS011;702;49.466;11.086;2024-03-06T05:53:58;60.00;;;31.37;;
1414;SDS011;702;49.466;11.086;2024-03-06T05:56:25;59.90;;;34.40;;
1414;SDS011;702;49.466;11.086;2024-03-06T05:58:52;65.67;;;33.00;;
1414;SDS011;702;49.466;11.086;2024-03-06T06:01:20;62.23;;;32.97;;
1414;SDS011;702;49.466;11.086;2024-03-06T06:03:47;63.20;;;34.17;;
1414;SDS011;702;49.466;11.086;2024-03-06T06:06:16;67.47;;;33.10;;
1414;SDS011;702;49.466;11.086;2024-03-06T06:08:44;61.23;;;32.03;;
1414;SDS011;702;49.466;11.086;2024-03-06T06:11:13;63.47;;;33.10;;
1414;SDS011;702;49.466;11.086;2024-03-06T06:13:40;52.70;;;29.63;;
1414;SDS011;702;49.466;11.086;2024-03-06T06:16:07;53.17;;;27.90;;
1414;SDS011;702;49.466;11.086;2024-03-06T06:18:35;55.80;;;30.57;;
1414;SDS011;702;49.466;11.086;2024-03-06T06:21:02;60.63;;;34.53;;
1414;SDS011;702;49.466;11.086;2024-03-06T06:23:33;59.83;;;33.30;;
1414;SDS011;702;49.466;11.086;2024-03-06T06:26:01;55.80;;;31.30;;
1414;SDS011;702;49.466;11.086;2024-03-06T06:28:28;52.80;;;29.13;;
1414;SDS011;702;49.466;11.086;2024-03-06T06:30:55;62.57;;;32.10;;
1414;SDS011;702;49.466;11.086;2024-03-06T06:33:23;59.43;;;31.00;;
1414;SDS011;702;49.466;11.086;2024-03-06T06:35:50;52.53;;;30.50;;
1414;SDS011;702;49.466;11.086;2024-03-06T06:38:19;55.80;;;30.40;;
1414;SDS011;702;49.466;11.086;2024-03-06T06:40:48;62.83;;;31.20;;
1414;SDS011;702;49.466;11.086;2024-03-06T06:43:16;55.53;;;30.87;;
1414;SDS011;702;49.466;11.086;2024-03-06T06:45:43;55.13;;;30.30;;
1414;SDS011;702;49.466;11.086;2024-03-06T06:48:10;60.20;;;29.93;;
1414;SDS011;702;49.466;11.086;2024-03-06T06:50:37;55.77;;;28.63;;
1414;SDS011;702;49.466;11.086;2024-03-06T06:53:05;55.30;;;30.70;;
1414;SDS011;702;49.466;11.086;2024-03-06T06:55:41;52.93;;;29.10;;
1414;SDS011;702;49.466;11.086;2024-03-06T06:58:10;56.47;;;32.33;;
1414;SDS011;702;49.466;11.086;2024-03-06T07:00:37;47.30;;;26.37;;
1414;SDS011;702;49.466;11.086;2024-03-06T07:03:04;50.17;;;29.17;;
1414;SDS011;702;49.466;11.086;2024-03-06T07:05:32;49.50;;;27.00;;
1414;SDS011;702;49.466;11.086;2024-03-06T07:07:59;56.53;;;29.97;;
1414;SDS011;702;49.466;11.086;2024-03-06T07:10:27;57.53;;;30.60;;
1414;SDS011;702;49.466;11.086;2024-03-06T07:12:54;46.93;;;26.53;;
1414;SDS011;702;49.466;11.086;2024-03-06T07:15:23;48.03;;;27.50;;
1414;SDS011;702;49.466;11.086;2024-03-06T07:17:50;51.60;;;28.37;;
1414;SDS011;702;49.466;11.086;2024-03-06T07:20:17;49.40;;;27.90;;
1414;SDS011;702;49.466;11.086;2024-03-06T07:22:45;50.27;;;28.50;;
1414;SDS011;702;49.466;11.086;2024-03-06T07:25:12;46.83;;;26.87;;
1414;SDS011;702;49.466;11.086;2024-03-06T07:27:39;45.87;;;25.60;;
1414;SDS011;702;49.466;11.086;2024-03-06T07:30:08;44.30;;;26.60;;
1414;SDS011;702;49.466;11.086;2024-03-06T07:32:37;45.30;;;25.67;;
1414;SDS011;702;49.466;11.086;2024-03-06T07:35:07;38.03;;;24.93;;
1414;SDS011;702;49.466;11.086;2024-03-06T07:37:35;42.30;;;25.87;;
1414;SDS011;702;49.466;11.086;2024-03-06T07:40:02;44.33;;;27.00;;
1414;SDS011;702;49.466;11.086;2024-03-06T07:42:35;39.10;;;24.90;;
1414;SDS011;702;49.466;11.086;2024-03-06T07:45:03;40.43;;;24.40;;
1414;SDS011;702;49.466;11.086;2024-03-06T07:47:32;43.90;;;25.20;;
1414;SDS011;702;49.466;11.086;2024-03-06T07:50:02;37.17;;;20.77;;
1414;SDS011;702;49.466;11.086;2024-03-06T07:52:44;35.23;;;22.97;;
1414;SDS011;702;49.466;11.086;2024-03-06T07:55:12;32.90;;;20.83;;
1414;SDS011;702;49.466;11.086;2024-03-06T07:57:39;28.83;;;18.60;;
1414;SDS011;702;49.466;11.086;2024-03-06T08:00:07;32.80;;;20.33;;
1414;SDS011;702;49.466;11.086;2024-03-06T08:02:40;32.20;;;19.37;;
1414;SDS011;702;49.466;11.086;2024-03-06T08:05:11;28.20;;;18.37;;
1414;SDS011;702;49.466;11.086;2024-03-06T08:07:38;27.55;;;20.35;;
1414;SDS011;702;49.466;11.086;2024-03-06T08:10:11;25.23;;;17.60;;
1414;SDS011;702;49.466;11.086;2024-03-06T08:12:44;25.23;;;18.03;;
1414;SDS011;702;49.466;11.086;2024-03-06T08:15:14;27.30;;;18.30;;
1414;SDS011;702;49.466;11.086;2024-03-06T08:17:42;27.67;;;16.93;;
1414;SDS011;702;49.466;11.086;2024-03-06T08:20:14;25.50;;;18.17;;
1414;SDS011;702;49.466;11.086;2024-03-06T08:22:42;23.93;;;17.50;;
1414;SDS011;702;49.466;11.086;2024-03-06T08:25:11;24.07;;;17.87;;
1414;SDS011;702;49.466;11.086;2024-03-06T08:27:40;26.13;;;17.20;;
1414;SDS011;702;49.466;11.086;2024-03-06T08:30:08;28.90;;;17.30;;
1414;SDS011;702;49.466;11.086;2024-03-06T08:32:38;26.00;;;17.07;;
1414;SDS011;702;49.466;11.086;2024-03-06T08:35:06;26.73;;;16.50;;
1414;SDS011;702;49.466;11.086;2024-03-06T08:37:38;23.97;;;16.77;;
1414;SDS011;702;49.466;11.086;2024-03-06T08:40:06;23.50;;;16.13;;
1414;SDS011;702;49.466;11.086;2024-03-06T08:42:40;26.93;;;17.00;;
1414;SDS011;702;49.466;11.086;2024-03-06T08:45:08;26.33;;;17.00;;
1414;SDS011;702;49.466;11.086;2024-03-06T08:47:37;23.90;;;15.30;;
1414;SDS011;702;49.466;11.086;2024-03-06T08:50:05;23.40;;;16.00;;
1414;SDS011;702;49.466;11.086;2024-03-06T08:52:33;24.80;;;15.80;;
1414;SDS011;702;49.466;11.086;2024-03-06T08:55:02;25.17;;;16.30;;
1414;SDS011;702;49.466;11.086;2024-03-06T08:57:31;25.20;;;17.47;;
1414;SDS011;702;49.466;11.086;2024-03-06T08:59:58;26.23;;;16.57;;
1414;SDS011;702;49.466;11.086;2024-03-06T09:02:26;26.80;;;16.23;;
1414;SDS011;702;49.466;11.086;2024-03-06T09:04:53;23.97;;;16.07;;
1414;SDS011;702;49.466;11.086;2024-03-06T09:07:21;27.33;;;16.73;;
1414;SDS011;702;49.466;11.086;2024-03-06T09:09:50;26.70;;;17.10;;
1414;SDS011;702;49.466;11.086;2024-03-06T09:12:19;23.97;;;15.70;;
1414;SDS011;702;49.466;11.086;2024-03-06T09:14:46;26.13;;;15.50;;
1414;SDS011;702;49.466;11.086;2024-03-06T09:17:13;26.77;;;16.07;;
1414;SDS011;702;49.466;11.086;2024-03-06T09:19:40;21.53;;;16.30;;
1414;SDS011;702;49.466;11.086;2024-03-06T09:22:08;24.80;;;15.20;;
1414;SDS011;702;49.466;11.086;2024-03-06T09:24:35;26.43;;;15.30;;
1414;SDS011;702;49.466;11.086;2024-03-06T09:27:03;20.90;;;15.37;;
1414;SDS011;702;49.466;11.086;2024-03-06T09:29:32;26.40;;;15.80;;
1414;SDS011;702;49.466;11.086;2024-03-06T09:32:00;29.97;;;16.90;;
1414;SDS011;702;49.466;11.086;2024-03-06T09:34:27;22.33;;;15.47;;
1414;SDS011;702;49.466;11.086;2024-03-06T09:36:54;23.07;;;14.80;;
1414;SDS011;702;49.466;11.086;2024-03-06T09:39:22;22.30;;;14.63;;
1414;SDS011;702;49.466;11.086;2024-03-06T09:41:49;21.40;;;15.27;;
1414;SDS011;702;49.466;11.086;2024-03-06T09:44:16;24.23;;;15.53;;
1414;SDS011;702;49.466;11.086;2024-03-06T09:46:47;24.77;;;16.87;;
1414;SDS011;702;49.466;11.086;2024-03-06T09:49:15;23.50;;;15.87;;
1414;SDS011;702;49.466;11.086;2024-03-06T09:51:45;24.03;;;15.97;;
1414;SDS011;702;49.466;11.086;2024-03-06T09:54:15;22.90;;;16.23;;
1414;SDS011;702;49.466;11.086;2024-03-06T09:56:43;21.33;;;15.47;;
1414;SDS011;702;49.466;11.086;2024-03-06T09:59:12;23.60;;;16.30;;
1414;SDS011;702;49.466;11.086;2024-03-06T10:01:40;25.77;;;17.10;;
1414;SDS011;702;49.466;11.086;2024-03-06T10:04:20;23.20;;;15.23;;
1414;SDS011;702;49.466;11.086;2024-03-06T10:06:55;23.90;;;16.17;;
1414;SDS011;702;49.466;11.086;2024-03-06T10:09:33;25.93;;;16.17;;
1414;SDS011;702;49.466;11.086;2024-03-06T10:12:01;23.93;;;15.77;;
1414;SDS011;702;49.466;11.086;2024-03-06T10:14:28;21.80;;;16.37;;
1414;SDS011;702;49.466;11.086;2024-03-06T10:16:59;27.30;;;17.77;;
1414;SDS011;702;49.466;11.086;2024-03-06T10:19:28;25.70;;;15.93;;
1414;SDS011;702;49.466;11.086;2024-03-06T10:21:56;27.67;;;14.93;;
1414;SDS011;702;49.466;11.086;2024-03-06T10:24:24;25.80;;;16.00;;
1414;SDS011;702;49.466;11.086;2024-03-06T10:26:54;23.33;;;16.57;;
1414;SDS011;702;49.466;11.086;2024-03-06T10:29:24;21.13;;;15.10;;
1414;SDS011;702;49.466;11.086;2024-03-06T10:31:53;23.13;;;15.60;;
1414;SDS011;702;49.466;11.086;2024-03-06T10:34:24;26.57;;;17.40;;
1414;SDS011;702;49.466;11.086;2024-03-06T10:36:53;19.90;;;15.60;;
1414;SDS011;702;49.466;11.086;2024-03-06T10:39:23;25.20;;;16.73;;
1414;SDS011;702;49.466;11.086;2024-03-06T10:41:51;24.80;;;16.20;;
1414;SDS011;702;49.466;11.086;2024-03-06T10:44:21;28.03;;;18.53;;
1414;SDS011;702;49.466;11.086;2024-03-06T10:47:00;24.30;;;15.77;;
1414;SDS011;702;49.466;11.086;2024-03-06T10:49:33;23.43;;;17.00;;
1414;SDS011;702;49.466;11.086;2024-03-06T10:52:02;24.87;;;16.10;;
1414;SDS011;702;49.466;11.086;2024-03-06T10:54:32;20.70;;;15.70;;
1414;SDS011;702;49.466;11.086;2024-03-06T10:57:04;24.90;;;16.40;;
1414;SDS011;702;49.466;11.086;2024-03-06T10:59:32;30.57;;;17.37;;
1414;SDS011;702;49.466;11.086;2024-03-06T11:02:02;23.27;;;16.00;;
1414;SDS011;702;49.466;11.086;2024-03-06T11:04:30;22.93;;;15.23;;
1414;SDS011;702;49.466;11.086;2024-03-06T11:06:59;23.60;;;15.93;;
1414;SDS011;702;49.466;11.086;2024-03-06T11:09:28;21.00;;;14.77;;
1414;SDS011;702;49.466;11.086;2024-03-06T11:12:00;19.13;;;13.80;;
1414;SDS011;702;49.466;11.086;2024-03-06T11:14:30;18.77;;;13.10;;
1414;SDS011;702;49.466;11.086;2024-03-06T11:16:58;22.07;;;14.60;;
1414;SDS011;702;49.466;11.086;2024-03-06T11:19:28;22.37;;;14.27;;
1414;SDS011;702;49.466;11.086;2024-03-06T11:21:59;24.10;;;15.30;;
1414;SDS011;702;49.466;11.086;2024-03-06T11:24:32;21.50;;;14.10;;
1414;SDS011;702;49.466;11.086;2024-03-06T11:27:00;20.67;;;14.07;;
1414;SDS011;702;49.466;11.086;2024-03-06T11:32:36;18.80;;;13.17;;
1414;SDS011;702;49.466;11.086;2024-03-06T11:35:07;19.03;;;14.10;;
1414;SDS011;702;49.466;11.086;2024-03-06T11:37:37;18.77;;;13.47;;
1414;SDS011;702;49.466;11.086;2024-03-06T11:40:13;22.60;;;14.50;;
1414;SDS011;702;49.466;11.086;2024-03-06T11:42:40;20.67;;;15.03;;
1414;SDS011;702;49.466;11.086;2024-03-06T11:45:13;21.03;;;14.40;;
1414;SDS011;702;49.466;11.086;2024-03-06T11:47:57;19.30;;;13.40;;
1414;SDS011;702;49.466;11.086;2024-03-06T11:50:26;20.70;;;14.07;;
1414;SDS011;702;49.466;11.086;2024-03-06T11:52:57;18.67;;;13.87;;
1414;SDS011;702;49.466;11.086;2024-03-06T11:55:24;22.43;;;15.73;;
1414;SDS011;702;49.466;11.086;2024-03-06T11:57:52;22.67;;;15.50;;
1414;SDS011;702;49.466;11.086;2024-03-06T12:00:21;21.50;;;14.30;;
1414;SDS011;702;49.466;11.086;2024-03-06T12:02:49;23.20;;;14.97;;
1414;SDS011;702;49.466;11.086;2024-03-06T12:05:20;22.17;;;15.17;;
1414;SDS011;702;49.466;11.086;2024-03-06T12:07:49;21.83;;;14.40;;
1414;SDS011;702;49.466;11.086;2024-03-06T12:10:20;22.20;;;14.37;;
1414;SDS011;702;49.466;11.086;2024-03-06T12:12:51;19.30;;;13.70;;
1414;SDS011;702;49.466;11.086;2024-03-06T12:15:19;18.43;;;13.60;;
1414;SDS011;702;49.466;11.086;2024-03-06T12:17:47;18.03;;;13.10;;
1414;SDS011;702;49.466;11.086;2024-03-06T12:20:16;20.47;;;13.07;;
1414;SDS011;702;49.466;11.086;2024-03-06T12:22:44;19.98;;;12.60;;
1414;SDS011;702;49.466;11.086;2024-03-06T12:25:17;20.75;;;15.30;;
1414;SDS011;702;49.466;11.086;2024-03-06T12:27:50;19.10;;;13.67;;
1414;SDS011;702;49.466;11.086;2024-03-06T12:30:21;19.23;;;13.33;;
1414;SDS011;702;49.466;11.086;2024-03-06T12:32:56;16.60;;;11.73;;
1414;SDS011;702;49.466;11.086;2024-03-06T12:35:23;21.20;;;13.07;;
1414;SDS011;702;49.466;11.086;2024-03-06T12:37:51;21.33;;;12.50;;
1414;SDS011;702;49.466;11.086;2024-03-06T12:40:20;16.53;;;12.57;;
1414;SDS011;702;49.466;11.086;2024-03-06T12:42:48;18.00;;;11.80;;
1414;SDS011;702;49.466;11.086;2024-03-06T12:45:17;18.00;;;12.37;;
1414;SDS011;702;49.466;11.086;2024-03-06T12:47:45;15.97;;;11.80;;
1414;SDS011;702;49.466;11.086;2024-03-06T12:50:14;20.13;;;13.03;;
1414;SDS011;702;49.466;11.086;2024-03-06T12:52:44;18.77;;;12.33;;
1414;SDS011;702;49.466;11.086;2024-03-06T12:55:11;18.00;;;13.10;;
1414;SDS011;702;49.466;11.086;2024-03-06T12:57:40;20.37;;;12.63;;
1414;SDS011;702;49.466;11.086;2024-03-06T13:00:09;15.30;;;12.20;;
1414;SDS011;702;49.466;11.086;2024-03-06T13:02:40;17.83;;;11.60;;
1414;SDS011;702;49.466;11.086;2024-03-06T13:05:09;18.27;;;13.27;;
1414;SDS011;702;49.466;11.086;2024-03-06T13:07:36;14.80;;;11.20;;
1414;SDS011;702;49.466;11.086;2024-03-06T13:10:04;16.37;;;11.30;;
1414;SDS011;702;49.466;11.086;2024-03-06T13:12:35;17.10;;;11.73;;
1414;SDS011;702;49.466;11.086;2024-03-06T13:15:04;19.57;;;13.27;;
1414;SDS011;702;49.466;11.086;2024-03-06T13:17:33;17.47;;;11.90;;
1414;SDS011;702;49.466;11.086;2024-03-06T13:20:00;18.67;;;13.97;;
1414;SDS011;702;49.466;11.086;2024-03-06T13:22:28;17.63;;;10.90;;
1414;SDS011;702;49.466;11.086;2024-03-06T13:24:55;17.83;;;13.13;;
1414;SDS011;702;49.466;11.086;2024-03-06T13:27:23;17.37;;;12.70;;
1414;SDS011;702;49.466;11.086;2024-03-06T13:29:50;18.13;;;13.70;;
1414;SDS011;702;49.466;11.086;2024-03-06T13:32:19;16.03;;;12.60;;
1414;SDS011;702;49.466;11.086;2024-03-06T13:34:46;19.40;;;12.40;;
1414;SDS011;702;49.466;11.086;2024-03-06T13:37:13;22.13;;;12.90;;
1414;SDS011;702;49.466;11.086;2024-03-06T13:39:41;20.30;;;12.07;;
1414;SDS011;702;49.466;11.086;2024-03-06T13:42:08;21.20;;;12.50;;
1414;SDS011;702;49.466;11.086;2024-03-06T13:44:35;18.93;;;12.53;;
1414;SDS011;702;49.466;11.086;2024-03-06T13:47:03;20.60;;;13.30;;
1414;SDS011;702;49.466;11.086;2024-03-06T13:49:35;17.50;;;13.17;;
1414;SDS011;702;49.466;11.086;2024-03-06T13:52:04;19.97;;;13.50;;
1414;SDS011;702;49.466;11.086;2024-03-06T13:54:35;19.10;;;12.73;;
1414;SDS011;702;49.466;11.086;2024-03-06T13:57:25;19.73;;;12.77;;
1414;SDS011;702;49.466;11.086;2024-03-06T13:59:53;19.95;;;15.23;;
1414;SDS011;702;49.466;11.086;2024-03-06T14:02:21;18.90;;;13.90;;
1414;SDS011;702;49.466;11.086;2024-03-06T14:04:49;18.80;;;14.37;;
1414;SDS011;702;49.466;11.086;2024-03-06T14:07:16;19.40;;;13.20;;
1414;SDS011;702;49.466;11.086;2024-03-06T14:09:44;18.83;;;13.10;;
1414;SDS011;702;49.466;11.086;2024-03-06T14:12:11;17.17;;;13.03;;
1414;SDS011;702;49.466;11.086;2024-03-06T14:14:38;17.93;;;12.40;;
1414;SDS011;702;49.466;11.086;2024-03-06T14:17:05;17.23;;;13.20;;
1414;SDS011;702;49.466;11.086;2024-03-06T14:19:32;19.37;;;13.00;;
1414;SDS011;702;49.466;11.086;2024-03-06T14:22:01;20.00;;;13.03;;
1414;SDS011;702;49.466;11.086;2024-03-06T14:24:28;20.77;;;13.33;;
1414;SDS011;702;49.466;11.086;2024-03-06T14:26:56;19.73;;;13.33;;
1414;SDS011;702;49.466;11.086;2024-03-06T14:29:23;19.47;;;13.10;;
1414;SDS011;702;49.466;11.086;2024-03-06T14:31:53;17.87;;;13.40;;
1414;SDS011;702;49.466;11.086;2024-03-06T14:34:20;25.53;;;15.00;;
1414;SDS011;702;49.466;11.086;2024-03-06T14:36:48;17.43;;;12.27;;
1414;SDS011;702;49.466;11.086;2024-03-06T14:39:18;21.47;;;13.30;;
1414;SDS011;702;49.466;11.086;2024-03-06T14:41:48;20.83;;;13.63;;
1414;SDS011;702;49.466;11.086;2024-03-06T14:44:15;18.00;;;12.57;;
1414;SDS011;702;49.466;11.086;2024-03-06T14:46:42;21.80;;;14.17;;
1414;SDS011;702;49.466;11.086;2024-03-06T14:49:09;21.93;;;14.23;;
1414;SDS011;702;49.466;11.086;2024-03-06T14:51:37;21.60;;;14.30;;
1414;SDS011;702;49.466;11.086;2024-03-06T14:54:04;18.37;;;13.23;;
1414;SDS011;702;49.466;11.086;2024-03-06T14:56:33;18.53;;;12.33;;
1414;SDS011;702;49.466;11.086;2024-03-06T14:59:00;19.53;;;12.63;;